This is the latest recevied weather packets stored in our database for station/object K9RJT. If no packets are shown the sender has not sent any weather packets the latest 10 day(s).
| Time | Temp. | Humidity | Pressure | Rain* | Wind** | Luminosity | Snow |
|---|---|---|---|---|---|---|---|
| 1778105180 | 27.22° C | 29% | 1012.1 hPa | 0 mm | - | 548 W/m² | - |
| 1778104875 | 27.22° C | 27% | 1012 hPa | 0 mm | - | 530 W/m² | - |
| 1778104572 | 27.22° C | 26% | 1012.2 hPa | 0 mm | - | 533 W/m² | - |
| 1778104267 | 27.22° C | 26% | 1012.4 hPa | 0 mm | - | 523 W/m² | - |
| 1778103965 | 26.67° C | 27% | 1012.3 hPa | 0 mm | - | 575 W/m² | - |
| 1778103662 | 26.67° C | 27% | 1012.3 hPa | 0 mm | - | 582 W/m² | - |
| 1778103360 | 26.67° C | 29% | 1012.1 hPa | 0 mm | - | 479 W/m² | - |
| 1778103057 | 26.67° C | 31% | 1012.5 hPa | 0 mm | - | 606 W/m² | - |
| 1778102753 | 26.67° C | 31% | 1012.5 hPa | 0 mm | - | 607 W/m² | - |
| 1778102448 | 26.67° C | 31% | 1012.6 hPa | 0 mm | - | 606 W/m² | - |
| 1778102145 | 26.67° C | 31% | 1012.6 hPa | 0 mm | - | 617 W/m² | - |
| 1778101842 | 26.11° C | 31% | 1012.7 hPa | 0 mm | - | 626 W/m² | - |
| 1778101538 | 26.11° C | 30% | 1012.7 hPa | 0 mm | - | 632 W/m² | - |
| 1778101235 | 26.11° C | 29% | 1012.6 hPa | 0 mm | - | 639 W/m² | - |
| 1778100932 | 26.11° C | 31% | 1012.8 hPa | 0 mm | - | 649 W/m² | - |
| 1778100627 | 25.56° C | 31% | 1012.8 hPa | 0 mm | - | 645 W/m² | - |
| 1778100325 | 25.56° C | 30% | 1012.8 hPa | 0 mm | - | 659 W/m² | - |
| 1778100022 | 25.56° C | 31% | 1013 hPa | 0 mm | - | 663 W/m² | - |
| 1778099720 | 25.56° C | 30% | 1013.1 hPa | 0 mm | - | 669 W/m² | - |
| 1778099416 | 25° C | 30% | 1013.1 hPa | 0 mm | - | 673 W/m² | - |
| 1778099114 | 25.56° C | 34% | 1013 hPa | 0 mm | - | 675 W/m² | - |
| 1778098810 | 25.56° C | 33% | 1013.1 hPa | 0 mm | - | 679 W/m² | - |
| 1778098508 | 25.56° C | 33% | 1012.8 hPa | 0 mm | - | 679 W/m² | - |
| 1778098204 | 25.56° C | 33% | 1013 hPa | 0 mm | - | 685 W/m² | - |
| 1778097900 | 24.44° C | 34% | 1013.1 hPa | 0 mm | - | 686 W/m² | - |
* Rain latest hour (hover to see other rain measurements)
** Current wind speed in m/s (hover to see current wind gust speed)